Ashville, Pennsylvania
Current Conditions -  °F | °C
As of 3:28 AM on Monday 26 Jan 2015 (Local Time) from KAOO Reporting Station
Light Snow Light Snow  
Wind Chill: 14°   Ceiling: 1300
Heat Index: 24°   Visibility: 2.5mi
Dew Point: 22°   Wind: 9mph
Humidity: 91%   Direction: 40°NE
Pressure: 29.78"   Gusts: NA
Location:  40.56°N, 78.55°W
Report Text: KAOO 260828Z AUTO 04008KT 2 1/2SM -SN BR FEW008 OVC013 M04/M06 A2978 RMK AO2 P0000 T10441056
Loading
Personal Weather Stations






























Interactive Weather Map New forecast layout! Learn more

10-Day Weather Forecast

Advertisements
Track Severe Weather on mobile